createdAt,value
2023-05-21T00:02:29.994Z,14.60
2023-05-21T00:04:58.019Z,14.60
2023-05-21T00:07:25.978Z,14.50
2023-05-21T00:09:53.926Z,14.60
2023-05-21T00:12:21.817Z,14.60
2023-05-21T00:14:49.702Z,14.60
2023-05-21T00:17:19.090Z,14.50
2023-05-21T00:19:47.012Z,14.50
2023-05-21T00:22:15.911Z,14.60
2023-05-21T00:24:45.345Z,14.50
2023-05-21T00:27:13.433Z,14.60
2023-05-21T00:29:43.593Z,14.50
2023-05-21T00:32:12.293Z,14.40
2023-05-21T00:34:42.207Z,14.50
2023-05-21T00:37:11.154Z,14.40
2023-05-21T00:39:39.021Z,14.30
2023-05-21T00:42:07.012Z,14.30
2023-05-21T00:44:35.326Z,14.40
2023-05-21T00:47:03.710Z,14.30
2023-05-21T00:49:32.439Z,14.20
2023-05-21T00:52:02.374Z,14.30
2023-05-21T00:54:31.204Z,14.30
2023-05-21T00:56:59.742Z,14.20
2023-05-21T00:59:27.791Z,14.20
2023-05-21T01:01:56.938Z,14.20
2023-05-21T01:04:25.256Z,14.10
2023-05-21T01:06:56.148Z,14.10
2023-05-21T01:09:26.062Z,14.10
2023-05-21T01:11:54.791Z,14.00
2023-05-21T01:14:25.088Z,14.00
2023-05-21T01:16:53.747Z,14.10
2023-05-21T01:19:23.694Z,14.10
2023-05-21T01:21:53.787Z,13.90
2023-05-21T01:24:23.235Z,14.00
2023-05-21T01:26:51.133Z,13.90
2023-05-21T01:29:19.327Z,13.90
2023-05-21T01:31:57.378Z,13.90
2023-05-21T01:34:33.683Z,13.80
2023-05-21T01:37:09.740Z,13.70
2023-05-21T01:39:43.619Z,13.70
2023-05-21T01:42:12.232Z,13.70
2023-05-21T01:44:41.841Z,13.60
2023-05-21T01:47:11.582Z,13.60
2023-05-21T01:49:39.841Z,13.50
2023-05-21T01:52:08.155Z,13.40
2023-05-21T01:54:36.102Z,13.40
2023-05-21T01:57:05.632Z,13.40
2023-05-21T01:59:33.887Z,13.30
2023-05-21T02:02:01.854Z,13.30
2023-05-21T02:04:29.786Z,13.30
2023-05-21T02:06:57.945Z,13.30
2023-05-21T02:09:25.869Z,13.30
2023-05-21T02:11:53.773Z,13.20
2023-05-21T02:14:25.206Z,13.20
2023-05-21T02:16:53.486Z,13.10
2023-05-21T02:19:21.494Z,13.10
2023-05-21T02:21:49.405Z,13.00
2023-05-21T02:24:17.825Z,13.10
2023-05-21T02:26:45.981Z,13.00
2023-05-21T02:29:13.895Z,13.00
2023-05-21T02:31:43.247Z,12.90
2023-05-21T02:34:11.212Z,12.90
2023-05-21T02:36:41.429Z,12.90
2023-05-21T02:39:09.358Z,13.00
2023-05-21T02:41:38.102Z,12.90
2023-05-21T02:44:06.136Z,12.90
2023-05-21T02:46:34.015Z,13.00
2023-05-21T02:49:03.267Z,12.90
2023-05-21T02:51:31.545Z,12.80
2023-05-21T02:53:59.486Z,12.90
2023-05-21T02:56:27.365Z,12.90
2023-05-21T02:58:55.228Z,12.80
2023-05-21T03:01:23.186Z,12.80
2023-05-21T03:03:51.109Z,12.80
2023-05-21T03:06:20.625Z,12.80
2023-05-21T03:08:48.645Z,12.90
2023-05-21T03:11:16.568Z,12.90
2023-05-21T03:13:44.462Z,12.90
2023-05-21T03:16:12.457Z,12.80
2023-05-21T03:18:40.766Z,12.90
2023-05-21T03:21:08.704Z,12.90
2023-05-21T03:23:37.975Z,12.90
2023-05-21T03:26:06.012Z,13.00
2023-05-21T03:28:33.904Z,12.90
2023-05-21T03:31:01.821Z,13.00
2023-05-21T03:33:29.865Z,12.90
2023-05-21T03:35:57.794Z,12.90
2023-05-21T03:38:25.717Z,13.00
2023-05-21T03:40:55.640Z,13.00
2023-05-21T03:43:23.559Z,13.00
2023-05-21T03:45:51.761Z,13.00
2023-05-21T03:48:19.666Z,13.00
2023-05-21T03:50:47.613Z,13.10
2023-05-21T03:53:15.673Z,13.00
2023-05-21T03:55:43.530Z,13.00
2023-05-21T03:58:12.791Z,13.00
2023-05-21T04:00:40.774Z,13.00
2023-05-21T04:03:09.551Z,13.00
2023-05-21T04:05:37.667Z,13.00
2023-05-21T04:08:05.786Z,13.10
2023-05-21T04:10:34.186Z,13.10
2023-05-21T04:13:02.110Z,13.10
2023-05-21T04:15:31.402Z,13.10
2023-05-21T04:18:00.384Z,13.20
2023-05-21T04:20:28.494Z,13.20
2023-05-21T04:22:56.743Z,13.20
2023-05-21T04:25:25.379Z,13.20
2023-05-21T04:27:54.618Z,13.20
2023-05-21T04:30:23.973Z,13.30
2023-05-21T04:32:54.694Z,13.30
2023-05-21T04:35:23.393Z,13.30
2023-05-21T04:37:52.040Z,13.40
2023-05-21T04:40:24.426Z,13.30
2023-05-21T04:42:52.457Z,13.40
2023-05-21T04:45:21.112Z,13.40
2023-05-21T04:47:49.146Z,13.40
2023-05-21T04:50:18.890Z,13.50
2023-05-21T04:52:46.791Z,13.50
2023-05-21T04:55:14.677Z,13.60
2023-05-21T04:57:42.579Z,13.60
2023-05-21T05:00:12.473Z,13.60
2023-05-21T05:02:40.694Z,13.60
2023-05-21T05:05:09.095Z,13.70
2023-05-21T05:07:38.368Z,13.70
2023-05-21T05:10:07.225Z,13.80
2023-05-21T05:12:35.188Z,13.90
2023-05-21T05:15:03.096Z,13.90
2023-05-21T05:17:31.197Z,13.90
2023-05-21T05:19:59.134Z,13.80
2023-05-21T05:22:27.194Z,13.90
2023-05-21T05:24:56.466Z,14.00
2023-05-21T05:27:24.420Z,14.00
2023-05-21T05:29:52.410Z,14.10
2023-05-21T05:32:20.913Z,14.10
2023-05-21T05:34:48.881Z,14.10
2023-05-21T05:37:17.088Z,14.10
2023-05-21T05:39:44.992Z,14.20
2023-05-21T05:42:14.246Z,14.20
2023-05-21T05:44:42.188Z,14.20
2023-05-21T05:47:10.937Z,14.20
2023-05-21T05:49:38.857Z,14.30
2023-05-21T05:52:07.489Z,14.40
2023-05-21T05:54:35.537Z,14.40
2023-05-21T05:57:03.516Z,14.50
2023-05-21T05:59:33.723Z,14.50
2023-05-21T06:02:01.708Z,14.60
2023-05-21T06:04:29.991Z,14.60
2023-05-21T06:06:58.456Z,14.70
2023-05-21T06:09:26.506Z,14.80
2023-05-21T06:11:54.436Z,14.90
2023-05-21T06:14:22.396Z,14.90
2023-05-21T06:16:51.697Z,15.00
2023-05-21T06:19:19.944Z,15.00
2023-05-21T06:21:51.512Z,15.00
2023-05-21T06:24:19.424Z,15.10
2023-05-21T06:26:47.302Z,15.10
2023-05-21T06:29:17.006Z,15.20
2023-05-21T06:31:44.981Z,15.20
2023-05-21T06:34:14.257Z,15.50
2023-05-21T06:36:42.260Z,15.50
2023-05-21T06:39:10.267Z,15.60
2023-05-21T06:41:38.237Z,15.80
2023-05-21T06:44:06.442Z,15.80
2023-05-21T06:46:35.502Z,15.90
2023-05-21T06:49:03.497Z,15.90
2023-05-21T06:51:32.765Z,16.10
2023-05-21T06:54:00.809Z,16.20
2023-05-21T06:56:28.720Z,16.30
2023-05-21T06:58:56.639Z,16.30
2023-05-21T07:01:24.889Z,16.30
2023-05-21T07:03:52.954Z,16.50
2023-05-21T07:06:20.896Z,16.60
2023-05-21T07:08:50.465Z,16.60
2023-05-21T07:11:18.428Z,16.60
2023-05-21T07:13:46.338Z,16.50
2023-05-21T07:16:14.417Z,16.60
2023-05-21T07:18:42.474Z,16.70
2023-05-21T07:21:10.427Z,17.00
2023-05-21T07:23:38.398Z,17.30
2023-05-21T07:26:07.816Z,17.30
2023-05-21T07:28:35.819Z,17.20
2023-05-21T07:31:03.878Z,17.20
2023-05-21T07:33:31.786Z,17.10
2023-05-21T07:35:59.697Z,17.10
2023-05-21T07:38:27.598Z,17.20
2023-05-21T07:40:55.568Z,17.20
2023-05-21T07:43:25.148Z,17.20
2023-05-21T07:45:53.306Z,17.20
2023-05-21T07:48:21.232Z,17.10
2023-05-21T07:50:50.070Z,17.20
2023-05-21T07:53:18.027Z,17.50
2023-05-21T07:55:48.395Z,17.60
2023-05-21T07:58:17.596Z,17.80
2023-05-21T08:00:48.217Z,17.90
2023-05-21T08:03:17.293Z,17.80
2023-05-21T08:05:48.579Z,17.90
2023-05-21T08:08:17.213Z,18.10
2023-05-21T08:10:45.253Z,18.10
2023-05-21T08:13:13.460Z,18.40
2023-05-21T08:15:41.359Z,18.80
2023-05-21T08:18:11.773Z,19.00
2023-05-21T08:20:39.905Z,18.90
2023-05-21T08:23:07.907Z,18.90
2023-05-21T08:25:35.906Z,19.00
2023-05-21T08:28:03.947Z,19.00
2023-05-21T08:30:31.851Z,18.80
2023-05-21T08:32:59.794Z,18.70
2023-05-21T08:35:29.097Z,18.90
2023-05-21T08:37:57.000Z,18.90
2023-05-21T08:40:24.934Z,19.00
2023-05-21T08:42:53.057Z,18.90
2023-05-21T08:45:23.010Z,18.90
2023-05-21T08:47:56.432Z,19.00
2023-05-21T08:50:27.849Z,19.00
2023-05-21T08:52:58.817Z,18.90
2023-05-21T08:55:26.902Z,19.00
2023-05-21T08:57:55.710Z,19.30
2023-05-21T09:00:24.221Z,19.40
2023-05-21T09:02:54.327Z,19.60
2023-05-21T09:05:23.483Z,19.50
2023-05-21T09:08:01.890Z,19.50
2023-05-21T09:10:36.689Z,19.40
2023-05-21T09:13:05.057Z,19.40
2023-05-21T09:15:33.398Z,19.60
2023-05-21T09:18:01.429Z,19.40
2023-05-21T09:20:30.091Z,19.50
2023-05-21T09:23:04.584Z,19.30
2023-05-21T09:25:32.846Z,19.20
2023-05-21T09:28:00.918Z,19.30
2023-05-21T09:30:31.316Z,19.30
2023-05-21T09:33:01.557Z,19.40
2023-05-21T09:35:29.616Z,19.40
2023-05-21T09:37:59.014Z,19.40
2023-05-21T09:40:27.042Z,19.30
2023-05-21T09:42:56.174Z,19.20
2023-05-21T09:45:26.031Z,19.00
2023-05-21T09:47:55.761Z,19.10
2023-05-21T09:50:24.849Z,19.20
2023-05-21T09:52:53.704Z,19.30
2023-05-21T09:55:26.477Z,19.40
2023-05-21T09:57:54.619Z,19.60
2023-05-21T10:00:24.117Z,19.70
2023-05-21T10:02:55.771Z,19.70
2023-05-21T10:05:27.355Z,19.70
2023-05-21T10:08:00.870Z,19.80
2023-05-21T10:10:31.673Z,19.90
2023-05-21T10:13:01.671Z,20.00
2023-05-21T10:15:33.242Z,20.00
2023-05-21T10:18:02.633Z,20.10
2023-05-21T10:20:31.016Z,20.10
2023-05-21T10:23:00.009Z,20.10
2023-05-21T10:25:28.337Z,20.10
2023-05-21T10:27:58.564Z,20.10
2023-05-21T10:30:26.601Z,20.10
2023-05-21T10:32:57.885Z,20.20
2023-05-21T10:35:26.028Z,20.30
2023-05-21T10:37:55.250Z,20.40
2023-05-21T10:40:23.213Z,20.30
2023-05-21T10:43:27.777Z,20.70
2023-05-21T10:46:16.245Z,20.90
2023-05-21T10:49:08.011Z,20.70
2023-05-21T10:51:46.202Z,20.60
2023-05-21T10:54:46.595Z,20.80
2023-05-21T10:57:25.092Z,21.00
2023-05-21T10:59:54.874Z,21.10
2023-05-21T11:02:26.427Z,21.10
2023-05-21T11:05:00.039Z,21.20
2023-05-21T11:07:52.627Z,21.20
2023-05-21T11:10:40.814Z,21.20
2023-05-21T11:13:11.693Z,21.00
2023-05-21T11:16:07.124Z,21.10
2023-05-21T11:19:00.422Z,21.10
2023-05-21T11:21:36.905Z,21.20
2023-05-21T11:24:08.280Z,21.20
2023-05-21T11:27:02.232Z,21.30
2023-05-21T11:29:44.364Z,21.40
2023-05-21T11:32:17.255Z,21.60
2023-05-21T11:34:49.642Z,21.60
2023-05-21T11:37:30.124Z,22.00
2023-05-21T11:39:59.894Z,22.00
2023-05-21T11:42:35.064Z,22.30
2023-05-21T11:45:04.332Z,22.40
2023-05-21T11:47:33.823Z,22.40
2023-05-21T11:50:03.340Z,22.20
2023-05-21T11:52:32.835Z,22.30
2023-05-21T11:55:01.052Z,22.20
2023-05-21T11:57:31.813Z,22.40
2023-05-21T12:00:01.293Z,22.30
2023-05-21T12:02:34.411Z,22.50
2023-05-21T12:05:02.364Z,22.70
2023-05-21T12:07:31.182Z,22.90
2023-05-21T12:09:59.869Z,22.80
2023-05-21T12:12:35.615Z,22.70
2023-05-21T12:15:12.478Z,22.90
2023-05-21T12:17:42.387Z,23.00
2023-05-21T12:20:16.496Z,23.20
2023-05-21T12:22:45.398Z,23.10
2023-05-21T12:25:13.359Z,23.30
2023-05-21T12:27:44.940Z,23.20
2023-05-21T12:30:13.450Z,23.10
2023-05-21T12:32:44.884Z,23.10
2023-05-21T12:35:22.910Z,22.80
2023-05-21T12:37:51.953Z,22.80
2023-05-21T12:40:20.709Z,22.80
2023-05-21T12:42:48.785Z,22.90
2023-05-21T12:45:18.520Z,22.90
2023-05-21T12:47:55.908Z,23.10
2023-05-21T12:50:24.437Z,23.10
2023-05-21T12:52:55.973Z,23.40
2023-05-21T12:55:25.521Z,23.50
2023-05-21T12:58:03.074Z,23.50
2023-05-21T13:00:31.185Z,23.50
2023-05-21T13:03:01.694Z,23.50
2023-05-21T13:05:29.657Z,23.70
2023-05-21T13:07:57.541Z,24.00
2023-05-21T13:10:25.594Z,24.00
2023-05-21T13:12:53.512Z,24.00
2023-05-21T13:15:21.709Z,24.00
2023-05-21T13:17:50.688Z,24.00
2023-05-21T13:20:23.709Z,24.10
2023-05-21T13:22:52.600Z,24.20
2023-05-21T13:25:21.862Z,24.20
2023-05-21T13:27:50.581Z,24.40
2023-05-21T13:30:18.770Z,24.50
2023-05-21T13:32:46.860Z,24.40
2023-05-21T13:35:16.331Z,24.40
2023-05-21T13:37:46.025Z,24.40
2023-05-21T13:40:16.227Z,24.50
2023-05-21T13:42:45.106Z,24.60
2023-05-21T13:45:16.225Z,24.50
2023-05-21T13:47:44.914Z,24.20
2023-05-21T13:50:13.485Z,24.20
2023-05-21T13:52:41.928Z,24.20
2023-05-21T13:55:12.014Z,24.30
2023-05-21T13:57:40.661Z,24.40
2023-05-21T14:00:12.476Z,24.50
2023-05-21T14:02:42.413Z,24.60
2023-05-21T14:05:11.661Z,24.50
2023-05-21T14:07:40.826Z,24.60
2023-05-21T14:10:11.621Z,24.50
2023-05-21T14:12:40.589Z,24.60
2023-05-21T14:15:09.410Z,24.50
2023-05-21T14:17:37.358Z,24.50
2023-05-21T14:20:06.253Z,24.50
2023-05-21T14:22:34.207Z,24.50
2023-05-21T14:25:03.167Z,24.50
2023-05-21T14:27:32.545Z,24.60
2023-05-21T14:30:00.478Z,24.40
2023-05-21T14:32:28.519Z,24.40
2023-05-21T14:34:56.838Z,24.20
2023-05-21T14:37:24.796Z,24.30
2023-05-21T14:39:52.800Z,24.40
2023-05-21T14:42:20.839Z,24.40
2023-05-21T14:44:50.302Z,24.40
2023-05-21T14:47:18.730Z,24.50
2023-05-21T14:49:46.735Z,24.50
2023-05-21T14:52:14.649Z,24.50
2023-05-21T14:54:42.624Z,24.60
2023-05-21T14:57:10.786Z,24.60
2023-05-21T14:59:38.741Z,24.70
2023-05-21T15:02:08.116Z,24.50
2023-05-21T15:04:36.072Z,24.60
2023-05-21T15:07:04.114Z,24.70
2023-05-21T15:09:32.031Z,24.90
2023-05-21T15:11:59.988Z,25.00
2023-05-21T15:14:27.925Z,25.20
2023-05-21T15:16:55.864Z,25.20
2023-05-21T15:19:25.321Z,25.10
2023-05-21T15:21:53.544Z,25.10
2023-05-21T15:24:21.706Z,25.10
2023-05-21T15:26:49.804Z,25.00
2023-05-21T15:29:17.807Z,24.80
2023-05-21T15:31:45.795Z,24.80
2023-05-21T15:34:13.881Z,24.90
2023-05-21T15:36:43.439Z,25.00
2023-05-21T15:39:11.388Z,24.90
2023-05-21T15:41:41.001Z,24.80
2023-05-21T15:44:08.946Z,24.80
2023-05-21T15:46:37.171Z,24.90
2023-05-21T15:49:05.229Z,24.80
2023-05-21T15:51:33.273Z,24.70
2023-05-21T15:54:02.614Z,24.70
2023-05-21T15:56:30.814Z,24.60
2023-05-21T15:59:01.249Z,24.50
2023-05-21T16:01:30.058Z,24.50
2023-05-21T16:03:58.134Z,24.40
2023-05-21T16:06:26.290Z,24.40
2023-05-21T16:08:54.333Z,24.50
2023-05-21T16:11:23.880Z,24.60
2023-05-21T16:13:51.824Z,24.70
2023-05-21T16:16:21.202Z,24.70
2023-05-21T16:18:50.620Z,24.80
2023-05-21T16:21:18.821Z,24.70
2023-05-21T16:23:46.792Z,24.80
2023-05-21T16:26:14.765Z,24.80
2023-05-21T16:28:44.047Z,24.90
2023-05-21T16:31:12.780Z,24.90
2023-05-21T16:33:40.734Z,25.00
2023-05-21T16:36:08.774Z,25.00
2023-05-21T16:38:36.792Z,24.90
2023-05-21T16:41:04.745Z,24.60
2023-05-21T16:43:32.725Z,24.80
2023-05-21T16:46:02.134Z,24.80
2023-05-21T16:48:30.168Z,24.70
2023-05-21T16:50:58.131Z,24.60
2023-05-21T16:53:26.258Z,24.50
2023-05-21T16:55:54.250Z,24.40
2023-05-21T16:58:22.252Z,24.20
2023-05-21T17:00:50.202Z,24.20
2023-05-21T17:03:20.205Z,24.10
2023-05-21T17:05:48.272Z,24.00
2023-05-21T17:08:16.206Z,24.00
2023-05-21T17:10:44.124Z,23.90
2023-05-21T17:13:21.633Z,23.80
2023-05-21T17:15:51.044Z,23.80
2023-05-21T17:18:20.556Z,23.90
2023-05-21T17:20:48.514Z,23.90
2023-05-21T17:23:16.647Z,23.80
2023-05-21T17:25:44.726Z,23.80
2023-05-21T17:28:12.676Z,23.80
2023-05-21T17:30:40.735Z,23.80
2023-05-21T17:33:10.213Z,23.80
2023-05-21T17:35:39.891Z,23.70
2023-05-21T17:38:08.152Z,23.60
2023-05-21T17:40:36.143Z,23.40
2023-05-21T17:43:04.321Z,23.40
2023-05-21T17:45:32.353Z,23.20
2023-05-21T17:48:00.834Z,23.10
2023-05-21T17:50:29.071Z,23.10
2023-05-21T17:52:58.456Z,23.00
2023-05-21T17:55:26.469Z,22.90
2023-05-21T17:57:54.462Z,22.90
2023-05-21T18:00:22.656Z,22.80
2023-05-21T18:02:50.624Z,22.80
2023-05-21T18:05:18.698Z,22.60
2023-05-21T18:07:46.799Z,22.70
2023-05-21T18:10:16.245Z,22.60
2023-05-21T18:12:46.220Z,22.60
2023-05-21T18:15:14.891Z,22.60
2023-05-21T18:17:42.938Z,22.50
2023-05-21T18:20:12.131Z,22.40
2023-05-21T18:22:40.116Z,22.30
2023-05-21T18:25:09.651Z,22.20
2023-05-21T18:27:39.111Z,22.20
2023-05-21T18:30:09.288Z,22.10
2023-05-21T18:32:39.338Z,22.00
2023-05-21T18:35:10.598Z,22.00
2023-05-21T18:37:42.032Z,21.90
2023-05-21T18:40:11.080Z,21.90
2023-05-21T18:42:40.513Z,21.80
2023-05-21T18:45:10.172Z,21.80
2023-05-21T18:47:40.153Z,21.60
2023-05-21T18:50:09.789Z,21.60
2023-05-21T18:52:37.782Z,21.50
2023-05-21T18:55:06.657Z,21.30
2023-05-21T18:57:35.229Z,21.30
2023-05-21T19:00:05.644Z,21.20
2023-05-21T19:02:33.970Z,21.10
2023-05-21T19:05:02.886Z,21.00
2023-05-21T19:07:31.063Z,20.90
2023-05-21T19:10:00.179Z,20.90
2023-05-21T19:12:29.327Z,20.80
2023-05-21T19:14:57.498Z,20.70
2023-05-21T19:17:27.028Z,20.60
2023-05-21T19:19:56.726Z,20.50
2023-05-21T19:22:25.159Z,20.40
2023-05-21T19:24:53.798Z,20.30
2023-05-21T19:27:22.575Z,20.10
2023-05-21T19:29:51.629Z,20.10
2023-05-21T19:32:20.805Z,20.00
2023-05-21T19:34:50.240Z,20.00
2023-05-21T19:37:18.251Z,19.90
2023-05-21T19:39:49.710Z,19.80
2023-05-21T19:42:18.495Z,19.70
2023-05-21T19:44:46.728Z,19.60
2023-05-21T19:47:14.945Z,19.60
2023-05-21T19:49:43.093Z,19.60
2023-05-21T19:52:12.548Z,19.50
2023-05-21T19:54:40.670Z,19.50
2023-05-21T19:57:10.905Z,19.40
2023-05-21T19:59:40.211Z,19.30
2023-05-21T20:02:12.183Z,19.30
2023-05-21T20:04:40.132Z,19.30
2023-05-21T20:07:08.463Z,19.20
2023-05-21T20:09:37.925Z,19.10
2023-05-21T20:12:06.923Z,19.10
2023-05-21T20:14:35.267Z,19.00
2023-05-21T20:17:05.586Z,19.10
2023-05-21T20:19:33.995Z,19.00
2023-05-21T20:22:02.291Z,19.10
2023-05-21T20:24:30.369Z,19.10
2023-05-21T20:27:01.463Z,19.10
2023-05-21T20:29:29.956Z,19.20
2023-05-21T20:31:58.121Z,19.20
2023-05-21T20:34:27.365Z,19.20
2023-05-21T20:36:58.000Z,19.20
2023-05-21T20:39:27.977Z,19.20
2023-05-21T20:41:56.219Z,19.20
2023-05-21T20:44:27.588Z,19.30
2023-05-21T20:46:55.809Z,19.30
2023-05-21T20:49:25.980Z,19.40
2023-05-21T20:51:54.075Z,19.40
2023-05-21T20:54:23.188Z,19.50
2023-05-21T20:56:54.899Z,19.00
2023-05-21T20:59:23.053Z,18.40
2023-05-21T21:01:52.539Z,18.20
2023-05-21T21:04:20.871Z,17.90
2023-05-21T21:06:50.221Z,17.90
2023-05-21T21:09:18.381Z,17.80
2023-05-21T21:11:46.468Z,17.80
2023-05-21T21:14:14.870Z,17.60
2023-05-21T21:16:44.123Z,17.60
2023-05-21T21:19:13.621Z,17.50
2023-05-21T21:21:41.697Z,17.50
2023-05-21T21:24:09.827Z,17.60
2023-05-21T21:26:39.066Z,17.50
2023-05-21T21:29:07.018Z,17.60
2023-05-21T21:31:35.097Z,17.60
2023-05-21T21:34:03.213Z,17.60
2023-05-21T21:36:32.746Z,17.50
2023-05-21T21:39:00.819Z,17.60
2023-05-21T21:41:29.591Z,17.50
2023-05-21T21:43:57.547Z,17.50
2023-05-21T21:46:25.968Z,17.70
2023-05-21T21:48:53.994Z,17.60
2023-05-21T21:51:23.526Z,17.60
2023-05-21T21:53:53.124Z,17.50
2023-05-21T21:56:22.054Z,17.50
2023-05-21T21:58:50.027Z,17.50
2023-05-21T22:01:18.556Z,17.60
2023-05-21T22:03:46.833Z,17.50
2023-05-21T22:06:14.840Z,17.50
2023-05-21T22:08:42.886Z,17.50
2023-05-21T22:11:12.279Z,17.50
2023-05-21T22:13:41.547Z,17.50
2023-05-21T22:16:11.664Z,17.60
2023-05-21T22:18:42.074Z,17.50
2023-05-21T22:21:10.877Z,17.50
2023-05-21T22:23:39.285Z,17.40
2023-05-21T22:26:07.476Z,17.40
2023-05-21T22:28:36.876Z,17.40
2023-05-21T22:31:04.997Z,17.40
2023-05-21T22:33:32.970Z,17.40
2023-05-21T22:36:01.026Z,17.50
2023-05-21T22:38:29.020Z,17.50
2023-05-21T22:40:57.049Z,17.50
2023-05-21T22:43:24.999Z,17.50
2023-05-21T22:45:54.462Z,17.40
2023-05-21T22:48:23.579Z,17.40
2023-05-21T22:50:53.495Z,17.40
2023-05-21T22:53:21.790Z,17.40
2023-05-21T22:55:50.006Z,17.40
2023-05-21T22:58:18.465Z,17.40
2023-05-21T23:00:46.834Z,17.40
2023-05-21T23:03:16.290Z,17.40
2023-05-21T23:05:44.829Z,17.40
2023-05-21T23:08:13.431Z,17.40
2023-05-21T23:10:41.616Z,17.30
2023-05-21T23:13:09.830Z,17.30
2023-05-21T23:15:38.967Z,17.30
2023-05-21T23:18:08.631Z,17.10
2023-05-21T23:20:40.954Z,17.10
2023-05-21T23:23:10.572Z,17.10
2023-05-21T23:25:38.754Z,17.10
2023-05-21T23:28:07.014Z,17.10
2023-05-21T23:30:34.963Z,17.00
2023-05-21T23:33:03.599Z,16.90
2023-05-21T23:35:31.604Z,17.00
2023-05-21T23:38:00.933Z,17.00
2023-05-21T23:40:28.899Z,17.00
2023-05-21T23:42:56.963Z,17.10
2023-05-21T23:45:25.011Z,17.00
2023-05-21T23:47:53.516Z,17.00
2023-05-21T23:50:21.536Z,16.90
2023-05-21T23:52:49.570Z,16.90
2023-05-21T23:55:19.097Z,16.90
2023-05-21T23:57:47.334Z,17.00
